sensor_id;sensor_type;location;lat;lon;timestamp;P1;durP1;ratioP1;P2;durP2;ratioP2
50789;SDS011;37287;47.554;7.844;2023-03-31T00:00:57;5.60;;;2.65;;
50789;SDS011;37287;47.554;7.844;2023-03-31T00:03:26;13.70;;;2.53;;
50789;SDS011;37287;47.554;7.844;2023-03-31T00:05:56;4.80;;;2.55;;
50789;SDS011;37287;47.554;7.844;2023-03-31T00:08:25;4.72;;;2.55;;
50789;SDS011;37287;47.554;7.844;2023-03-31T00:10:58;7.13;;;3.38;;
50789;SDS011;37287;47.554;7.844;2023-03-31T00:13:31;9.10;;;3.40;;
50789;SDS011;37287;47.554;7.844;2023-03-31T00:15:59;5.88;;;3.03;;
50789;SDS011;37287;47.554;7.844;2023-03-31T00:18:29;6.30;;;3.60;;
50789;SDS011;37287;47.554;7.844;2023-03-31T00:21:10;6.53;;;3.58;;
50789;SDS011;37287;47.554;7.844;2023-03-31T00:23:52;5.43;;;3.38;;
50789;SDS011;37287;47.554;7.844;2023-03-31T00:26:20;7.15;;;3.75;;
50789;SDS011;37287;47.554;7.844;2023-03-31T00:28:48;7.03;;;3.42;;
50789;SDS011;37287;47.554;7.844;2023-03-31T00:31:15;10.25;;;3.67;;
50789;SDS011;37287;47.554;7.844;2023-03-31T00:33:43;10.20;;;3.50;;
50789;SDS011;37287;47.554;7.844;2023-03-31T00:36:09;5.80;;;3.30;;
50789;SDS011;37287;47.554;7.844;2023-03-31T00:38:37;7.25;;;3.35;;
50789;SDS011;37287;47.554;7.844;2023-03-31T00:41:04;5.35;;;3.22;;
50789;SDS011;37287;47.554;7.844;2023-03-31T00:43:36;7.88;;;3.60;;
50789;SDS011;37287;47.554;7.844;2023-03-31T00:46:05;11.93;;;3.78;;
50789;SDS011;37287;47.554;7.844;2023-03-31T00:49:00;13.15;;;3.97;;
50789;SDS011;37287;47.554;7.844;2023-03-31T00:51:30;9.00;;;3.75;;
50789;SDS011;37287;47.554;7.844;2023-03-31T00:54:00;10.77;;;4.07;;
50789;SDS011;37287;47.554;7.844;2023-03-31T00:56:34;6.30;;;3.22;;
50789;SDS011;37287;47.554;7.844;2023-03-31T00:59:06;6.72;;;3.70;;
50789;SDS011;37287;47.554;7.844;2023-03-31T01:01:36;7.07;;;3.58;;
50789;SDS011;37287;47.554;7.844;2023-03-31T01:04:08;8.32;;;3.45;;
50789;SDS011;37287;47.554;7.844;2023-03-31T01:06:42;5.82;;;3.55;;
50789;SDS011;37287;47.554;7.844;2023-03-31T01:09:15;8.75;;;3.58;;
50789;SDS011;37287;47.554;7.844;2023-03-31T01:11:44;7.03;;;3.40;;
50789;SDS011;37287;47.554;7.844;2023-03-31T01:14:13;8.35;;;3.90;;
50789;SDS011;37287;47.554;7.844;2023-03-31T01:16:39;5.32;;;3.55;;
50789;SDS011;37287;47.554;7.844;2023-03-31T01:19:10;8.13;;;3.92;;
50789;SDS011;37287;47.554;7.844;2023-03-31T01:46:35;8.82;;;3.30;;
50789;SDS011;37287;47.554;7.844;2023-03-31T01:49:16;7.07;;;3.55;;
50789;SDS011;37287;47.554;7.844;2023-03-31T01:52:02;7.00;;;3.42;;
50789;SDS011;37287;47.554;7.844;2023-03-31T01:54:53;7.25;;;3.50;;
50789;SDS011;37287;47.554;7.844;2023-03-31T01:57:35;4.32;;;2.80;;
50789;SDS011;37287;47.554;7.844;2023-03-31T02:00:08;6.63;;;3.53;;
50789;SDS011;37287;47.554;7.844;2023-03-31T02:02:45;9.55;;;3.58;;
50789;SDS011;37287;47.554;7.844;2023-03-31T02:05:16;7.03;;;3.47;;
50789;SDS011;37287;47.554;7.844;2023-03-31T02:07:52;6.63;;;3.40;;
50789;SDS011;37287;47.554;7.844;2023-03-31T02:10:24;8.45;;;3.65;;
50789;SDS011;37287;47.554;7.844;2023-03-31T02:13:04;8.77;;;3.67;;
50789;SDS011;37287;47.554;7.844;2023-03-31T02:15:37;6.90;;;3.63;;
50789;SDS011;37287;47.554;7.844;2023-03-31T02:18:10;9.80;;;3.97;;
50789;SDS011;37287;47.554;7.844;2023-03-31T02:20:42;11.32;;;4.10;;
50789;SDS011;37287;47.554;7.844;2023-03-31T02:23:18;6.00;;;3.40;;
50789;SDS011;37287;47.554;7.844;2023-03-31T02:25:58;6.60;;;3.70;;
50789;SDS011;37287;47.554;7.844;2023-03-31T02:28:31;6.45;;;3.33;;
50789;SDS011;37287;47.554;7.844;2023-03-31T02:33:47;8.45;;;3.08;;
50789;SDS011;37287;47.554;7.844;2023-03-31T02:36:14;7.60;;;3.50;;
50789;SDS011;37287;47.554;7.844;2023-03-31T02:38:53;10.73;;;3.40;;
50789;SDS011;37287;47.554;7.844;2023-03-31T02:41:26;10.73;;;3.97;;
50789;SDS011;37287;47.554;7.844;2023-03-31T02:43:52;6.97;;;3.55;;
50789;SDS011;37287;47.554;7.844;2023-03-31T02:46:19;7.45;;;3.42;;
50789;SDS011;37287;47.554;7.844;2023-03-31T02:48:50;8.50;;;3.53;;
50789;SDS011;37287;47.554;7.844;2023-03-31T02:51:26;7.47;;;3.47;;
50789;SDS011;37287;47.554;7.844;2023-03-31T02:54:19;4.28;;;2.75;;
50789;SDS011;37287;47.554;7.844;2023-03-31T03:15:07;6.53;;;3.47;;
50789;SDS011;37287;47.554;7.844;2023-03-31T03:17:42;8.48;;;3.70;;
50789;SDS011;37287;47.554;7.844;2023-03-31T03:20:13;7.28;;;3.35;;
50789;SDS011;37287;47.554;7.844;2023-03-31T03:22:46;9.07;;;3.35;;
50789;SDS011;37287;47.554;7.844;2023-03-31T03:25:16;5.25;;;3.20;;
50789;SDS011;37287;47.554;7.844;2023-03-31T03:27:45;9.18;;;3.72;;
50789;SDS011;37287;47.554;7.844;2023-03-31T03:30:14;9.35;;;4.00;;
50789;SDS011;37287;47.554;7.844;2023-03-31T03:32:40;9.20;;;3.97;;
50789;SDS011;37287;47.554;7.844;2023-03-31T03:35:08;8.38;;;4.05;;
50789;SDS011;37287;47.554;7.844;2023-03-31T03:37:37;10.70;;;4.47;;
50789;SDS011;37287;47.554;7.844;2023-03-31T03:40:04;8.20;;;3.85;;
50789;SDS011;37287;47.554;7.844;2023-03-31T03:42:32;6.95;;;3.65;;
50789;SDS011;37287;47.554;7.844;2023-03-31T03:45:05;7.65;;;3.90;;
50789;SDS011;37287;47.554;7.844;2023-03-31T03:47:32;10.27;;;3.58;;
50789;SDS011;37287;47.554;7.844;2023-03-31T03:49:59;7.95;;;3.60;;
50789;SDS011;37287;47.554;7.844;2023-03-31T03:52:27;8.55;;;3.88;;
50789;SDS011;37287;47.554;7.844;2023-03-31T03:54:54;6.72;;;3.60;;
50789;SDS011;37287;47.554;7.844;2023-03-31T03:57:21;4.70;;;3.28;;
50789;SDS011;37287;47.554;7.844;2023-03-31T03:59:49;7.07;;;3.05;;
50789;SDS011;37287;47.554;7.844;2023-03-31T04:02:15;6.00;;;2.95;;
50789;SDS011;37287;47.554;7.844;2023-03-31T04:04:42;4.07;;;2.70;;
50789;SDS011;37287;47.554;7.844;2023-03-31T04:07:11;3.78;;;2.83;;
50789;SDS011;37287;47.554;7.844;2023-03-31T04:09:38;7.13;;;2.35;;
50789;SDS011;37287;47.554;7.844;2023-03-31T04:12:04;6.15;;;2.80;;
50789;SDS011;37287;47.554;7.844;2023-03-31T04:14:31;5.68;;;2.70;;
50789;SDS011;37287;47.554;7.844;2023-03-31T04:16:58;6.95;;;2.38;;
50789;SDS011;37287;47.554;7.844;2023-03-31T04:19:24;7.35;;;2.45;;
50789;SDS011;37287;47.554;7.844;2023-03-31T04:21:52;4.18;;;2.22;;
50789;SDS011;37287;47.554;7.844;2023-03-31T04:24:28;5.68;;;2.60;;
50789;SDS011;37287;47.554;7.844;2023-03-31T04:26:59;5.07;;;2.10;;
50789;SDS011;37287;47.554;7.844;2023-03-31T04:29:28;5.03;;;2.10;;
50789;SDS011;37287;47.554;7.844;2023-03-31T04:32:00;6.00;;;2.55;;
50789;SDS011;37287;47.554;7.844;2023-03-31T04:34:27;4.55;;;2.13;;
50789;SDS011;37287;47.554;7.844;2023-03-31T04:37:01;4.85;;;2.17;;
50789;SDS011;37287;47.554;7.844;2023-03-31T04:39:30;3.60;;;2.13;;
50789;SDS011;37287;47.554;7.844;2023-03-31T04:41:59;4.55;;;2.13;;
50789;SDS011;37287;47.554;7.844;2023-03-31T04:44:26;3.08;;;1.75;;
50789;SDS011;37287;47.554;7.844;2023-03-31T04:46:55;3.85;;;2.08;;
50789;SDS011;37287;47.554;7.844;2023-03-31T04:49:24;3.80;;;1.92;;
50789;SDS011;37287;47.554;7.844;2023-03-31T04:51:50;4.53;;;2.20;;
50789;SDS011;37287;47.554;7.844;2023-03-31T04:54:17;3.83;;;2.03;;
50789;SDS011;37287;47.554;7.844;2023-03-31T04:56:44;3.17;;;2.40;;
50789;SDS011;37287;47.554;7.844;2023-03-31T04:59:11;6.18;;;2.45;;
50789;SDS011;37287;47.554;7.844;2023-03-31T05:01:39;4.32;;;2.53;;
50789;SDS011;37287;47.554;7.844;2023-03-31T05:04:11;3.95;;;2.58;;
50789;SDS011;37287;47.554;7.844;2023-03-31T05:06:37;5.72;;;2.50;;
50789;SDS011;37287;47.554;7.844;2023-03-31T05:09:04;3.97;;;2.13;;
50789;SDS011;37287;47.554;7.844;2023-03-31T05:11:30;5.28;;;2.42;;
50789;SDS011;37287;47.554;7.844;2023-03-31T05:13:57;5.65;;;2.75;;
50789;SDS011;37287;47.554;7.844;2023-03-31T05:16:23;3.78;;;2.53;;
50789;SDS011;37287;47.554;7.844;2023-03-31T05:18:50;4.85;;;2.88;;
50789;SDS011;37287;47.554;7.844;2023-03-31T05:21:18;5.95;;;3.03;;
50789;SDS011;37287;47.554;7.844;2023-03-31T05:23:46;4.03;;;2.40;;
50789;SDS011;37287;47.554;7.844;2023-03-31T05:26:15;7.72;;;2.88;;
50789;SDS011;37287;47.554;7.844;2023-03-31T05:28:48;5.00;;;2.60;;
50789;SDS011;37287;47.554;7.844;2023-03-31T05:31:14;3.08;;;2.40;;
50789;SDS011;37287;47.554;7.844;2023-03-31T05:33:42;6.45;;;2.83;;
50789;SDS011;37287;47.554;7.844;2023-03-31T05:36:10;3.90;;;2.45;;
50789;SDS011;37287;47.554;7.844;2023-03-31T05:38:39;5.20;;;2.17;;
50789;SDS011;37287;47.554;7.844;2023-03-31T05:41:06;4.80;;;2.22;;
50789;SDS011;37287;47.554;7.844;2023-03-31T05:43:35;4.38;;;2.30;;
50789;SDS011;37287;47.554;7.844;2023-03-31T05:46:02;3.63;;;2.10;;
50789;SDS011;37287;47.554;7.844;2023-03-31T05:48:30;4.05;;;2.40;;
50789;SDS011;37287;47.554;7.844;2023-03-31T05:50:59;4.10;;;1.98;;
50789;SDS011;37287;47.554;7.844;2023-03-31T05:53:26;3.25;;;2.08;;
50789;SDS011;37287;47.554;7.844;2023-03-31T05:56:00;3.17;;;2.08;;
50789;SDS011;37287;47.554;7.844;2023-03-31T05:58:32;4.07;;;2.45;;
50789;SDS011;37287;47.554;7.844;2023-03-31T06:01:03;5.32;;;2.08;;
50789;SDS011;37287;47.554;7.844;2023-03-31T06:03:38;3.92;;;1.88;;
50789;SDS011;37287;47.554;7.844;2023-03-31T06:06:07;2.67;;;1.88;;
50789;SDS011;37287;47.554;7.844;2023-03-31T06:08:34;3.00;;;1.80;;
50789;SDS011;37287;47.554;7.844;2023-03-31T06:11:06;3.58;;;2.00;;
50789;SDS011;37287;47.554;7.844;2023-03-31T06:13:35;4.63;;;2.13;;
50789;SDS011;37287;47.554;7.844;2023-03-31T06:16:02;5.88;;;2.53;;
50789;SDS011;37287;47.554;7.844;2023-03-31T06:18:31;4.28;;;2.45;;
50789;SDS011;37287;47.554;7.844;2023-03-31T06:21:00;5.70;;;2.40;;
50789;SDS011;37287;47.554;7.844;2023-03-31T06:23:27;8.10;;;2.60;;
50789;SDS011;37287;47.554;7.844;2023-03-31T06:25:58;5.25;;;2.20;;
50789;SDS011;37287;47.554;7.844;2023-03-31T06:28:27;5.07;;;2.83;;
50789;SDS011;37287;47.554;7.844;2023-03-31T06:31:01;5.15;;;2.30;;
50789;SDS011;37287;47.554;7.844;2023-03-31T06:33:33;2.95;;;2.22;;
50789;SDS011;37287;47.554;7.844;2023-03-31T06:36:01;3.00;;;2.05;;
50789;SDS011;37287;47.554;7.844;2023-03-31T06:38:31;3.88;;;2.00;;
50789;SDS011;37287;47.554;7.844;2023-03-31T06:41:00;3.92;;;1.80;;
50789;SDS011;37287;47.554;7.844;2023-03-31T06:43:28;3.08;;;1.50;;
50789;SDS011;37287;47.554;7.844;2023-03-31T06:45:55;2.78;;;1.60;;
50789;SDS011;37287;47.554;7.844;2023-03-31T06:48:22;2.97;;;1.30;;
50789;SDS011;37287;47.554;7.844;2023-03-31T06:50:52;3.35;;;1.38;;
50789;SDS011;37287;47.554;7.844;2023-03-31T06:53:19;1.48;;;1.38;;
50789;SDS011;37287;47.554;7.844;2023-03-31T06:55:49;3.92;;;1.33;;
50789;SDS011;37287;47.554;7.844;2023-03-31T06:58:16;2.95;;;1.02;;
50789;SDS011;37287;47.554;7.844;2023-03-31T07:00:43;3.28;;;1.10;;
50789;SDS011;37287;47.554;7.844;2023-03-31T07:03:13;2.38;;;1.35;;
50789;SDS011;37287;47.554;7.844;2023-03-31T07:05:42;4.25;;;1.38;;
50789;SDS011;37287;47.554;7.844;2023-03-31T07:08:13;4.97;;;1.20;;
50789;SDS011;37287;47.554;7.844;2023-03-31T07:10:45;1.25;;;1.10;;
50789;SDS011;37287;47.554;7.844;2023-03-31T07:13:16;1.88;;;1.40;;
50789;SDS011;37287;47.554;7.844;2023-03-31T07:15:45;3.17;;;1.42;;
50789;SDS011;37287;47.554;7.844;2023-03-31T07:18:13;2.97;;;1.35;;
50789;SDS011;37287;47.554;7.844;2023-03-31T07:20:41;2.33;;;1.10;;
50789;SDS011;37287;47.554;7.844;2023-03-31T07:23:08;2.67;;;1.27;;
50789;SDS011;37287;47.554;7.844;2023-03-31T07:25:42;3.65;;;1.20;;
50789;SDS011;37287;47.554;7.844;2023-03-31T07:28:08;1.80;;;1.40;;
50789;SDS011;37287;47.554;7.844;2023-03-31T07:30:35;2.38;;;1.20;;
50789;SDS011;37287;47.554;7.844;2023-03-31T07:33:02;1.85;;;1.35;;
50789;SDS011;37287;47.554;7.844;2023-03-31T07:35:29;1.50;;;1.17;;
50789;SDS011;37287;47.554;7.844;2023-03-31T07:37:56;2.80;;;1.52;;
50789;SDS011;37287;47.554;7.844;2023-03-31T07:40:25;5.47;;;1.80;;
50789;SDS011;37287;47.554;7.844;2023-03-31T07:42:53;2.90;;;1.63;;
50789;SDS011;37287;47.554;7.844;2023-03-31T07:45:23;3.88;;;1.50;;
50789;SDS011;37287;47.554;7.844;2023-03-31T07:47:55;2.92;;;1.45;;
50789;SDS011;37287;47.554;7.844;2023-03-31T07:50:21;6.25;;;1.45;;
50789;SDS011;37287;47.554;7.844;2023-03-31T07:52:49;2.63;;;1.50;;
50789;SDS011;37287;47.554;7.844;2023-03-31T07:55:17;3.22;;;1.40;;
50789;SDS011;37287;47.554;7.844;2023-03-31T07:57:45;4.30;;;1.40;;
50789;SDS011;37287;47.554;7.844;2023-03-31T08:00:13;3.75;;;1.38;;
50789;SDS011;37287;47.554;7.844;2023-03-31T08:02:43;3.78;;;1.40;;
50789;SDS011;37287;47.554;7.844;2023-03-31T08:05:13;4.15;;;1.55;;
50789;SDS011;37287;47.554;7.844;2023-03-31T08:07:43;4.88;;;1.65;;
50789;SDS011;37287;47.554;7.844;2023-03-31T08:10:13;3.67;;;1.67;;
50789;SDS011;37287;47.554;7.844;2023-03-31T08:12:42;3.72;;;1.80;;
50789;SDS011;37287;47.554;7.844;2023-03-31T08:15:09;2.90;;;1.58;;
50789;SDS011;37287;47.554;7.844;2023-03-31T08:17:36;2.97;;;1.40;;
50789;SDS011;37287;47.554;7.844;2023-03-31T08:20:05;3.83;;;1.67;;
50789;SDS011;37287;47.554;7.844;2023-03-31T08:22:33;3.33;;;1.33;;
50789;SDS011;37287;47.554;7.844;2023-03-31T08:25:00;4.28;;;1.70;;
50789;SDS011;37287;47.554;7.844;2023-03-31T08:27:33;2.72;;;1.55;;
50789;SDS011;37287;47.554;7.844;2023-03-31T08:30:03;2.42;;;1.48;;
50789;SDS011;37287;47.554;7.844;2023-03-31T08:32:32;6.88;;;1.88;;
50789;SDS011;37287;47.554;7.844;2023-03-31T08:34:59;7.22;;;1.60;;
50789;SDS011;37287;47.554;7.844;2023-03-31T08:37:26;1.85;;;1.60;;
50789;SDS011;37287;47.554;7.844;2023-03-31T08:39:53;2.80;;;1.20;;
50789;SDS011;37287;47.554;7.844;2023-03-31T08:42:38;5.05;;;1.55;;
50789;SDS011;37287;47.554;7.844;2023-03-31T08:45:21;3.65;;;1.63;;
50789;SDS011;37287;47.554;7.844;2023-03-31T08:47:54;3.95;;;1.63;;
50789;SDS011;37287;47.554;7.844;2023-03-31T08:50:33;9.75;;;1.90;;
50789;SDS011;37287;47.554;7.844;2023-03-31T08:53:04;3.95;;;1.25;;
50789;SDS011;37287;47.554;7.844;2023-03-31T08:55:52;8.90;;;2.03;;
50789;SDS011;37287;47.554;7.844;2023-03-31T09:01:01;4.38;;;1.60;;
50789;SDS011;37287;47.554;7.844;2023-03-31T09:07:02;3.92;;;1.70;;
50789;SDS011;37287;47.554;7.844;2023-03-31T09:09:40;5.10;;;1.60;;
50789;SDS011;37287;47.554;7.844;2023-03-31T09:15:26;5.68;;;1.35;;
50789;SDS011;37287;47.554;7.844;2023-03-31T09:18:02;3.28;;;1.17;;
50789;SDS011;37287;47.554;7.844;2023-03-31T09:20:38;3.53;;;1.10;;
50789;SDS011;37287;47.554;7.844;2023-03-31T09:25:38;6.10;;;1.90;;
50789;SDS011;37287;47.554;7.844;2023-03-31T09:28:13;4.75;;;1.70;;
50789;SDS011;37287;47.554;7.844;2023-03-31T09:30:48;3.55;;;1.40;;
50789;SDS011;37287;47.554;7.844;2023-03-31T09:33:18;7.82;;;1.70;;
50789;SDS011;37287;47.554;7.844;2023-03-31T09:35:52;4.30;;;1.67;;
50789;SDS011;37287;47.554;7.844;2023-03-31T09:38:19;5.13;;;1.52;;
50789;SDS011;37287;47.554;7.844;2023-03-31T09:40:45;4.95;;;1.50;;
50789;SDS011;37287;47.554;7.844;2023-03-31T09:43:17;3.78;;;1.33;;
50789;SDS011;37287;47.554;7.844;2023-03-31T09:45:47;6.03;;;1.73;;
50789;SDS011;37287;47.554;7.844;2023-03-31T09:48:31;5.25;;;1.27;;
50789;SDS011;37287;47.554;7.844;2023-03-31T09:51:13;3.67;;;1.35;;
50789;SDS011;37287;47.554;7.844;2023-03-31T09:54:29;2.55;;;1.10;;
50789;SDS011;37287;47.554;7.844;2023-03-31T09:59:20;4.00;;;1.30;;
50789;SDS011;37287;47.554;7.844;2023-03-31T10:01:49;5.07;;;1.23;;
50789;SDS011;37287;47.554;7.844;2023-03-31T10:06:49;5.45;;;1.70;;
50789;SDS011;37287;47.554;7.844;2023-03-31T10:09:20;4.15;;;1.55;;
50789;SDS011;37287;47.554;7.844;2023-03-31T10:11:52;4.22;;;1.33;;
50789;SDS011;37287;47.554;7.844;2023-03-31T10:14:24;4.32;;;1.58;;
50789;SDS011;37287;47.554;7.844;2023-03-31T10:16:54;5.18;;;1.73;;
50789;SDS011;37287;47.554;7.844;2023-03-31T10:19:30;3.85;;;1.60;;
50789;SDS011;37287;47.554;7.844;2023-03-31T10:22:04;4.03;;;1.30;;
50789;SDS011;37287;47.554;7.844;2023-03-31T10:24:42;6.55;;;1.70;;
50789;SDS011;37287;47.554;7.844;2023-03-31T10:27:21;4.40;;;1.60;;
50789;SDS011;37287;47.554;7.844;2023-03-31T10:29:58;4.00;;;1.58;;
50789;SDS011;37287;47.554;7.844;2023-03-31T10:33:00;4.95;;;1.60;;
50789;SDS011;37287;47.554;7.844;2023-03-31T10:35:21;5.13;;;1.50;;
50789;SDS011;37287;47.554;7.844;2023-03-31T10:37:55;8.40;;;1.73;;
50789;SDS011;37287;47.554;7.844;2023-03-31T10:40:25;3.53;;;1.30;;
50789;SDS011;37287;47.554;7.844;2023-03-31T10:42:59;4.15;;;1.40;;
50789;SDS011;37287;47.554;7.844;2023-03-31T10:45:51;3.63;;;1.40;;
50789;SDS011;37287;47.554;7.844;2023-03-31T10:48:26;4.47;;;1.42;;
50789;SDS011;37287;47.554;7.844;2023-03-31T10:50:58;6.28;;;1.60;;
50789;SDS011;37287;47.554;7.844;2023-03-31T10:53:29;4.05;;;1.38;;
50789;SDS011;37287;47.554;7.844;2023-03-31T10:56:14;5.75;;;1.80;;
50789;SDS011;37287;47.554;7.844;2023-03-31T10:58:49;3.90;;;1.35;;
50789;SDS011;37287;47.554;7.844;2023-03-31T11:01:34;4.45;;;1.30;;
50789;SDS011;37287;47.554;7.844;2023-03-31T11:04:37;4.72;;;1.20;;
50789;SDS011;37287;47.554;7.844;2023-03-31T11:07:36;5.28;;;1.48;;
50789;SDS011;37287;47.554;7.844;2023-03-31T11:25:18;6.80;;;1.50;;
50789;SDS011;37287;47.554;7.844;2023-03-31T11:33:04;9.15;;;1.13;;
50789;SDS011;37287;47.554;7.844;2023-03-31T11:36:00;3.13;;;1.20;;
50789;SDS011;37287;47.554;7.844;2023-03-31T11:38:41;3.08;;;1.20;;
50789;SDS011;37287;47.554;7.844;2023-03-31T11:41:14;6.97;;;1.27;;
50789;SDS011;37287;47.554;7.844;2023-03-31T11:43:48;4.70;;;1.30;;
50789;SDS011;37287;47.554;7.844;2023-03-31T11:46:27;5.38;;;1.30;;
50789;SDS011;37287;47.554;7.844;2023-03-31T11:49:27;6.50;;;1.42;;
50789;SDS011;37287;47.554;7.844;2023-03-31T11:57:10;3.97;;;0.93;;
50789;SDS011;37287;47.554;7.844;2023-03-31T11:59:53;4.15;;;0.40;;
50789;SDS011;37287;47.554;7.844;2023-03-31T12:05:16;2.97;;;0.65;;
50789;SDS011;37287;47.554;7.844;2023-03-31T12:07:51;2.85;;;0.60;;
50789;SDS011;37287;47.554;7.844;2023-03-31T12:10:20;3.22;;;0.55;;
50789;SDS011;37287;47.554;7.844;2023-03-31T12:13:18;0.93;;;0.63;;
50789;SDS011;37287;47.554;7.844;2023-03-31T12:16:21;1.75;;;0.80;;
50789;SDS011;37287;47.554;7.844;2023-03-31T12:18:59;4.85;;;0.70;;
50789;SDS011;37287;47.554;7.844;2023-03-31T12:21:31;7.20;;;0.80;;
50789;SDS011;37287;47.554;7.844;2023-03-31T12:24:03;3.15;;;0.70;;
50789;SDS011;37287;47.554;7.844;2023-03-31T12:26:37;2.45;;;0.68;;
50789;SDS011;37287;47.554;7.844;2023-03-31T12:29:29;3.70;;;0.73;;
50789;SDS011;37287;47.554;7.844;2023-03-31T12:31:58;0.32;;;0.30;;
50789;SDS011;37287;47.554;7.844;2023-03-31T12:34:31;1.58;;;0.45;;
50789;SDS011;37287;47.554;7.844;2023-03-31T12:51:57;1.58;;;0.93;;
50789;SDS011;37287;47.554;7.844;2023-03-31T12:57:19;3.20;;;0.98;;
50789;SDS011;37287;47.554;7.844;2023-03-31T13:00:08;2.20;;;0.80;;
50789;SDS011;37287;47.554;7.844;2023-03-31T13:02:38;3.65;;;0.90;;
50789;SDS011;37287;47.554;7.844;2023-03-31T13:08:47;2.17;;;0.98;;
50789;SDS011;37287;47.554;7.844;2023-03-31T13:11:43;2.53;;;1.00;;
50789;SDS011;37287;47.554;7.844;2023-03-31T13:14:19;3.20;;;1.00;;
50789;SDS011;37287;47.554;7.844;2023-03-31T13:16:47;3.15;;;1.27;;
50789;SDS011;37287;47.554;7.844;2023-03-31T13:19:31;4.38;;;1.40;;
50789;SDS011;37287;47.554;7.844;2023-03-31T13:22:01;5.25;;;1.50;;
50789;SDS011;37287;47.554;7.844;2023-03-31T13:24:32;6.47;;;1.63;;
50789;SDS011;37287;47.554;7.844;2023-03-31T13:30:12;5.10;;;1.40;;
50789;SDS011;37287;47.554;7.844;2023-03-31T13:33:07;5.97;;;1.70;;
50789;SDS011;37287;47.554;7.844;2023-03-31T13:35:44;4.72;;;1.52;;
50789;SDS011;37287;47.554;7.844;2023-03-31T13:38:20;7.68;;;1.63;;
50789;SDS011;37287;47.554;7.844;2023-03-31T13:41:07;4.55;;;1.58;;
50789;SDS011;37287;47.554;7.844;2023-03-31T13:51:58;3.45;;;1.50;;
50789;SDS011;37287;47.554;7.844;2023-03-31T13:54:53;5.28;;;1.70;;
50789;SDS011;37287;47.554;7.844;2023-03-31T13:57:30;3.88;;;1.33;;
50789;SDS011;37287;47.554;7.844;2023-03-31T14:03:12;5.60;;;1.23;;
50789;SDS011;37287;47.554;7.844;2023-03-31T14:05:58;4.25;;;1.10;;
50789;SDS011;37287;47.554;7.844;2023-03-31T14:08:38;1.55;;;0.90;;
50789;SDS011;37287;47.554;7.844;2023-03-31T14:11:24;4.20;;;1.00;;
50789;SDS011;37287;47.554;7.844;2023-03-31T14:14:12;8.15;;;1.60;;
50789;SDS011;37287;47.554;7.844;2023-03-31T14:16:44;4.72;;;1.00;;
50789;SDS011;37287;47.554;7.844;2023-03-31T14:19:36;10.68;;;1.00;;
50789;SDS011;37287;47.554;7.844;2023-03-31T14:33:27;1.35;;;0.60;;
50789;SDS011;37287;47.554;7.844;2023-03-31T14:36:24;1.65;;;0.50;;
50789;SDS011;37287;47.554;7.844;2023-03-31T14:39:12;4.22;;;0.70;;
50789;SDS011;37287;47.554;7.844;2023-03-31T14:41:52;3.60;;;0.68;;
50789;SDS011;37287;47.554;7.844;2023-03-31T14:44:20;6.38;;;1.30;;
50789;SDS011;37287;47.554;7.844;2023-03-31T14:46:57;3.00;;;0.75;;
50789;SDS011;37287;47.554;7.844;2023-03-31T14:49:25;2.03;;;0.68;;
50789;SDS011;37287;47.554;7.844;2023-03-31T14:52:07;1.27;;;0.55;;
50789;SDS011;37287;47.554;7.844;2023-03-31T14:54:46;1.50;;;0.70;;
50789;SDS011;37287;47.554;7.844;2023-03-31T14:57:16;2.75;;;0.80;;
50789;SDS011;37287;47.554;7.844;2023-03-31T14:59:47;1.98;;;0.55;;
50789;SDS011;37287;47.554;7.844;2023-03-31T15:02:34;0.85;;;0.60;;
50789;SDS011;37287;47.554;7.844;2023-03-31T15:05:09;1.92;;;0.60;;
50789;SDS011;37287;47.554;7.844;2023-03-31T15:07:48;1.48;;;0.70;;
50789;SDS011;37287;47.554;7.844;2023-03-31T15:10:15;4.30;;;0.60;;
50789;SDS011;37287;47.554;7.844;2023-03-31T15:12:46;7.05;;;0.80;;
50789;SDS011;37287;47.554;7.844;2023-03-31T15:15:18;1.42;;;0.70;;
50789;SDS011;37287;47.554;7.844;2023-03-31T15:17:47;3.40;;;0.63;;
50789;SDS011;37287;47.554;7.844;2023-03-31T15:20:20;1.70;;;0.70;;
50789;SDS011;37287;47.554;7.844;2023-03-31T15:22:57;1.52;;;0.77;;
50789;SDS011;37287;47.554;7.844;2023-03-31T15:25:26;1.88;;;0.70;;
50789;SDS011;37287;47.554;7.844;2023-03-31T15:28:01;4.80;;;0.98;;
50789;SDS011;37287;47.554;7.844;2023-03-31T15:30:31;5.28;;;0.68;;
50789;SDS011;37287;47.554;7.844;2023-03-31T15:33:00;2.47;;;0.95;;
50789;SDS011;37287;47.554;7.844;2023-03-31T15:35:44;3.95;;;0.77;;
50789;SDS011;37287;47.554;7.844;2023-03-31T15:38:12;1.92;;;0.70;;
50789;SDS011;37287;47.554;7.844;2023-03-31T15:40:44;3.88;;;0.80;;
50789;SDS011;37287;47.554;7.844;2023-03-31T15:43:26;4.70;;;0.95;;
50789;SDS011;37287;47.554;7.844;2023-03-31T15:45:58;2.53;;;0.73;;
50789;SDS011;37287;47.554;7.844;2023-03-31T15:48:34;2.05;;;0.75;;
50789;SDS011;37287;47.554;7.844;2023-03-31T15:51:12;2.03;;;0.57;;
50789;SDS011;37287;47.554;7.844;2023-03-31T15:53:45;3.75;;;0.70;;
50789;SDS011;37287;47.554;7.844;2023-03-31T15:56:30;0.55;;;0.35;;
50789;SDS011;37287;47.554;7.844;2023-03-31T15:59:02;6.07;;;1.00;;
50789;SDS011;37287;47.554;7.844;2023-03-31T16:01:53;0.85;;;0.50;;
50789;SDS011;37287;47.554;7.844;2023-03-31T16:04:22;2.10;;;0.57;;
50789;SDS011;37287;47.554;7.844;2023-03-31T16:07:04;2.65;;;0.77;;
50789;SDS011;37287;47.554;7.844;2023-03-31T16:12:50;3.88;;;1.10;;
50789;SDS011;37287;47.554;7.844;2023-03-31T16:15:27;3.88;;;1.27;;
50789;SDS011;37287;47.554;7.844;2023-03-31T16:17:59;1.17;;;0.88;;
50789;SDS011;37287;47.554;7.844;2023-03-31T16:20:30;4.10;;;0.90;;
50789;SDS011;37287;47.554;7.844;2023-03-31T16:23:13;7.13;;;2.75;;
50789;SDS011;37287;47.554;7.844;2023-03-31T16:25:48;3.97;;;1.73;;
50789;SDS011;37287;47.554;7.844;2023-03-31T16:28:30;2.85;;;1.15;;
50789;SDS011;37287;47.554;7.844;2023-03-31T16:31:27;3.38;;;1.30;;
50789;SDS011;37287;47.554;7.844;2023-03-31T16:34:02;4.22;;;0.88;;
50789;SDS011;37287;47.554;7.844;2023-03-31T16:36:34;3.85;;;1.05;;
50789;SDS011;37287;47.554;7.844;2023-03-31T16:39:03;3.55;;;1.10;;
50789;SDS011;37287;47.554;7.844;2023-03-31T16:41:32;3.65;;;1.20;;
50789;SDS011;37287;47.554;7.844;2023-03-31T16:43:59;2.65;;;0.93;;
50789;SDS011;37287;47.554;7.844;2023-03-31T16:46:32;1.63;;;1.00;;
50789;SDS011;37287;47.554;7.844;2023-03-31T16:48:59;3.72;;;1.10;;
50789;SDS011;37287;47.554;7.844;2023-03-31T16:51:26;3.78;;;0.90;;
50789;SDS011;37287;47.554;7.844;2023-03-31T16:53:54;2.05;;;1.00;;
50789;SDS011;37287;47.554;7.844;2023-03-31T16:56:24;1.92;;;0.85;;
50789;SDS011;37287;47.554;7.844;2023-03-31T16:58:56;3.65;;;0.80;;
50789;SDS011;37287;47.554;7.844;2023-03-31T17:01:24;2.97;;;0.93;;
50789;SDS011;37287;47.554;7.844;2023-03-31T17:03:54;2.58;;;0.75;;
50789;SDS011;37287;47.554;7.844;2023-03-31T17:06:23;2.67;;;0.85;;
50789;SDS011;37287;47.554;7.844;2023-03-31T17:08:49;3.22;;;0.77;;
50789;SDS011;37287;47.554;7.844;2023-03-31T17:11:16;2.80;;;0.85;;
50789;SDS011;37287;47.554;7.844;2023-03-31T17:13:43;2.35;;;1.02;;
50789;SDS011;37287;47.554;7.844;2023-03-31T17:16:10;3.00;;;1.10;;
50789;SDS011;37287;47.554;7.844;2023-03-31T17:18:40;4.57;;;1.20;;
50789;SDS011;37287;47.554;7.844;2023-03-31T17:21:10;3.03;;;0.85;;
50789;SDS011;37287;47.554;7.844;2023-03-31T17:23:44;2.45;;;1.00;;
50789;SDS011;37287;47.554;7.844;2023-03-31T17:26:12;3.15;;;1.15;;
50789;SDS011;37287;47.554;7.844;2023-03-31T17:28:43;5.60;;;1.77;;
50789;SDS011;37287;47.554;7.844;2023-03-31T17:33:38;1.88;;;1.13;;
50789;SDS011;37287;47.554;7.844;2023-03-31T17:36:05;4.25;;;1.20;;
50789;SDS011;37287;47.554;7.844;2023-03-31T17:38:36;6.13;;;1.30;;
50789;SDS011;37287;47.554;7.844;2023-03-31T17:41:08;6.10;;;1.42;;
50789;SDS011;37287;47.554;7.844;2023-03-31T17:43:35;6.85;;;1.60;;
50789;SDS011;37287;47.554;7.844;2023-03-31T17:46:07;5.07;;;1.33;;